sensor_id;sensor_type;location;lat;lon;timestamp;temperature;humidity
14798;DHT22;7490;63.708;20.368;2023-04-19T00:01:30;6.50;65.80
14798;DHT22;7490;63.708;20.368;2023-04-19T00:03:57;6.60;65.80
14798;DHT22;7490;63.708;20.368;2023-04-19T00:06:22;6.60;65.60
14798;DHT22;7490;63.708;20.368;2023-04-19T00:08:49;6.60;65.60
14798;DHT22;7490;63.708;20.368;2023-04-19T00:11:14;6.60;65.60
14798;DHT22;7490;63.708;20.368;2023-04-19T00:13:40;6.70;65.60
14798;DHT22;7490;63.708;20.368;2023-04-19T00:16:06;6.70;65.60
14798;DHT22;7490;63.708;20.368;2023-04-19T00:18:32;6.70;65.40
14798;DHT22;7490;63.708;20.368;2023-04-19T00:20:57;6.70;65.40
14798;DHT22;7490;63.708;20.368;2023-04-19T00:23:23;6.80;65.30
14798;DHT22;7490;63.708;20.368;2023-04-19T00:25:50;6.80;65.20
14798;DHT22;7490;63.708;20.368;2023-04-19T00:28:15;6.80;65.20
14798;DHT22;7490;63.708;20.368;2023-04-19T00:30:41;6.80;65.10
14798;DHT22;7490;63.708;20.368;2023-04-19T00:33:06;6.80;65.10
14798;DHT22;7490;63.708;20.368;2023-04-19T00:35:38;6.90;65.10
14798;DHT22;7490;63.708;20.368;2023-04-19T00:38:05;6.90;65.00
14798;DHT22;7490;63.708;20.368;2023-04-19T00:40:31;6.90;65.00
14798;DHT22;7490;63.708;20.368;2023-04-19T00:42:57;6.90;65.00
14798;DHT22;7490;63.708;20.368;2023-04-19T00:45:22;6.90;65.00
14798;DHT22;7490;63.708;20.368;2023-04-19T00:47:48;6.90;65.00
14798;DHT22;7490;63.708;20.368;2023-04-19T00:50:14;6.90;65.20
14798;DHT22;7490;63.708;20.368;2023-04-19T00:52:40;6.90;64.90
14798;DHT22;7490;63.708;20.368;2023-04-19T00:55:07;6.90;64.80
14798;DHT22;7490;63.708;20.368;2023-04-19T00:57:32;6.90;64.80
14798;DHT22;7490;63.708;20.368;2023-04-19T00:59:58;6.90;64.80
14798;DHT22;7490;63.708;20.368;2023-04-19T01:02:24;7.00;64.80
14798;DHT22;7490;63.708;20.368;2023-04-19T01:04:50;6.90;64.70
14798;DHT22;7490;63.708;20.368;2023-04-19T01:07:17;6.90;64.70
14798;DHT22;7490;63.708;20.368;2023-04-19T01:09:44;6.80;64.70
14798;DHT22;7490;63.708;20.368;2023-04-19T01:12:10;6.80;64.80
14798;DHT22;7490;63.708;20.368;2023-04-19T01:14:36;6.80;64.80
14798;DHT22;7490;63.708;20.368;2023-04-19T01:17:02;6.80;64.90
14798;DHT22;7490;63.708;20.368;2023-04-19T01:19:27;6.70;64.90
14798;DHT22;7490;63.708;20.368;2023-04-19T01:21:53;6.70;65.00
14798;DHT22;7490;63.708;20.368;2023-04-19T01:24:20;6.60;64.90
14798;DHT22;7490;63.708;20.368;2023-04-19T01:26:46;6.60;65.10
14798;DHT22;7490;63.708;20.368;2023-04-19T01:29:12;6.60;65.10
14798;DHT22;7490;63.708;20.368;2023-04-19T01:31:38;6.60;65.10
14798;DHT22;7490;63.708;20.368;2023-04-19T01:34:03;6.50;65.00
14798;DHT22;7490;63.708;20.368;2023-04-19T01:36:30;6.70;65.20
14798;DHT22;7490;63.708;20.368;2023-04-19T01:38:55;6.40;65.00
14798;DHT22;7490;63.708;20.368;2023-04-19T01:41:21;6.30;65.00
14798;DHT22;7490;63.708;20.368;2023-04-19T01:43:51;6.20;65.20
14798;DHT22;7490;63.708;20.368;2023-04-19T01:46:17;6.20;65.40
14798;DHT22;7490;63.708;20.368;2023-04-19T01:48:43;6.10;65.50
14798;DHT22;7490;63.708;20.368;2023-04-19T01:51:08;6.00;65.60
14798;DHT22;7490;63.708;20.368;2023-04-19T01:53:34;5.90;65.70
14798;DHT22;7490;63.708;20.368;2023-04-19T01:56:00;5.90;65.90
14798;DHT22;7490;63.708;20.368;2023-04-19T01:58:25;5.80;66.00
14798;DHT22;7490;63.708;20.368;2023-04-19T02:00:51;5.80;66.10
14798;DHT22;7490;63.708;20.368;2023-04-19T02:03:17;5.80;66.20
14798;DHT22;7490;63.708;20.368;2023-04-19T02:05:42;5.70;66.30
14798;DHT22;7490;63.708;20.368;2023-04-19T02:08:08;5.70;66.30
14798;DHT22;7490;63.708;20.368;2023-04-19T02:10:34;5.60;66.30
14798;DHT22;7490;63.708;20.368;2023-04-19T02:13:00;5.50;66.40
14798;DHT22;7490;63.708;20.368;2023-04-19T02:15:25;5.50;66.60
14798;DHT22;7490;63.708;20.368;2023-04-19T02:17:51;5.40;66.60
14798;DHT22;7490;63.708;20.368;2023-04-19T02:20:17;5.40;66.70
14798;DHT22;7490;63.708;20.368;2023-04-19T02:22:42;5.30;66.70
14798;DHT22;7490;63.708;20.368;2023-04-19T02:25:08;5.30;66.80
14798;DHT22;7490;63.708;20.368;2023-04-19T02:27:34;5.30;66.90
14798;DHT22;7490;63.708;20.368;2023-04-19T02:29:59;5.20;66.90
14798;DHT22;7490;63.708;20.368;2023-04-19T02:32:25;5.10;66.90
14798;DHT22;7490;63.708;20.368;2023-04-19T02:34:51;5.10;67.00
14798;DHT22;7490;63.708;20.368;2023-04-19T02:37:16;5.10;67.20
14798;DHT22;7490;63.708;20.368;2023-04-19T02:39:42;5.00;67.20
14798;DHT22;7490;63.708;20.368;2023-04-19T02:42:10;4.90;67.30
14798;DHT22;7490;63.708;20.368;2023-04-19T02:44:35;4.90;67.40
14798;DHT22;7490;63.708;20.368;2023-04-19T02:47:01;4.90;67.60
14798;DHT22;7490;63.708;20.368;2023-04-19T02:49:29;4.90;67.70
14798;DHT22;7490;63.708;20.368;2023-04-19T02:51:56;4.80;67.80
14798;DHT22;7490;63.708;20.368;2023-04-19T02:54:22;4.80;67.80
14798;DHT22;7490;63.708;20.368;2023-04-19T02:56:48;4.70;67.90
14798;DHT22;7490;63.708;20.368;2023-04-19T02:59:13;4.70;68.10
14798;DHT22;7490;63.708;20.368;2023-04-19T03:01:39;4.70;68.20
14798;DHT22;7490;63.708;20.368;2023-04-19T03:04:05;4.60;68.40
14798;DHT22;7490;63.708;20.368;2023-04-19T03:06:30;4.60;68.60
14798;DHT22;7490;63.708;20.368;2023-04-19T03:08:56;4.60;68.80
14798;DHT22;7490;63.708;20.368;2023-04-19T03:11:22;4.60;69.00
14798;DHT22;7490;63.708;20.368;2023-04-19T03:13:47;4.70;69.00
14798;DHT22;7490;63.708;20.368;2023-04-19T03:16:13;4.70;69.10
14798;DHT22;7490;63.708;20.368;2023-04-19T03:18:39;4.70;69.10
14798;DHT22;7490;63.708;20.368;2023-04-19T03:21:04;4.70;69.10
14798;DHT22;7490;63.708;20.368;2023-04-19T03:23:33;4.70;69.10
14798;DHT22;7490;63.708;20.368;2023-04-19T03:25:59;4.70;69.20
14798;DHT22;7490;63.708;20.368;2023-04-19T03:28:25;4.70;69.30
14798;DHT22;7490;63.708;20.368;2023-04-19T03:30:50;4.80;69.50
14798;DHT22;7490;63.708;20.368;2023-04-19T03:33:16;4.80;69.60
14798;DHT22;7490;63.708;20.368;2023-04-19T03:35:42;5.00;69.90
14798;DHT22;7490;63.708;20.368;2023-04-19T03:38:08;5.00;69.90
14798;DHT22;7490;63.708;20.368;2023-04-19T03:40:36;5.10;69.90
14798;DHT22;7490;63.708;20.368;2023-04-19T03:43:02;5.20;70.00
14798;DHT22;7490;63.708;20.368;2023-04-19T03:45:29;5.30;69.90
14798;DHT22;7490;63.708;20.368;2023-04-19T03:47:55;5.40;70.00
14798;DHT22;7490;63.708;20.368;2023-04-19T03:50:21;5.50;69.80
14798;DHT22;7490;63.708;20.368;2023-04-19T03:52:46;5.60;70.00
14798;DHT22;7490;63.708;20.368;2023-04-19T03:55:12;5.80;70.10
14798;DHT22;7490;63.708;20.368;2023-04-19T03:57:38;5.90;70.10
14798;DHT22;7490;63.708;20.368;2023-04-19T04:00:04;6.10;70.20
14798;DHT22;7490;63.708;20.368;2023-04-19T04:02:37;6.20;70.20
14798;DHT22;7490;63.708;20.368;2023-04-19T04:05:06;6.40;70.10
14798;DHT22;7490;63.708;20.368;2023-04-19T04:07:32;6.60;69.90
14798;DHT22;7490;63.708;20.368;2023-04-19T04:09:58;6.80;69.70
14798;DHT22;7490;63.708;20.368;2023-04-19T04:12:23;6.90;69.60
14798;DHT22;7490;63.708;20.368;2023-04-19T04:14:49;7.20;69.70
14798;DHT22;7490;63.708;20.368;2023-04-19T04:17:14;7.50;69.70
14798;DHT22;7490;63.708;20.368;2023-04-19T04:19:40;7.90;69.20
14798;DHT22;7490;63.708;20.368;2023-04-19T04:22:06;8.10;68.60
14798;DHT22;7490;63.708;20.368;2023-04-19T04:24:37;8.40;68.10
14798;DHT22;7490;63.708;20.368;2023-04-19T04:27:03;8.70;67.50
14798;DHT22;7490;63.708;20.368;2023-04-19T04:29:31;8.90;66.90
14798;DHT22;7490;63.708;20.368;2023-04-19T04:31:56;9.10;66.50
14798;DHT22;7490;63.708;20.368;2023-04-19T04:34:22;9.30;65.90
14798;DHT22;7490;63.708;20.368;2023-04-19T04:36:48;9.30;65.20
14798;DHT22;7490;63.708;20.368;2023-04-19T04:39:15;9.40;64.90
14798;DHT22;7490;63.708;20.368;2023-04-19T04:41:41;9.50;64.70
14798;DHT22;7490;63.708;20.368;2023-04-19T04:44:07;9.60;64.50
14798;DHT22;7490;63.708;20.368;2023-04-19T04:46:34;9.70;64.40
14798;DHT22;7490;63.708;20.368;2023-04-19T04:48:59;9.90;64.10
14798;DHT22;7490;63.708;20.368;2023-04-19T04:51:25;10.00;63.70
14798;DHT22;7490;63.708;20.368;2023-04-19T04:53:51;10.20;63.40
14798;DHT22;7490;63.708;20.368;2023-04-19T04:56:17;10.40;63.10
14798;DHT22;7490;63.708;20.368;2023-04-19T04:58:43;10.70;63.00
14798;DHT22;7490;63.708;20.368;2023-04-19T05:01:08;11.00;62.50
14798;DHT22;7490;63.708;20.368;2023-04-19T05:03:34;11.30;61.90
14798;DHT22;7490;63.708;20.368;2023-04-19T05:06:00;11.70;61.30
14798;DHT22;7490;63.708;20.368;2023-04-19T05:08:26;12.00;60.40
14798;DHT22;7490;63.708;20.368;2023-04-19T05:10:51;12.40;59.70
14798;DHT22;7490;63.708;20.368;2023-04-19T05:13:17;12.50;59.10
14798;DHT22;7490;63.708;20.368;2023-04-19T05:15:43;12.90;58.90
14798;DHT22;7490;63.708;20.368;2023-04-19T05:18:08;13.30;58.40
14798;DHT22;7490;63.708;20.368;2023-04-19T05:20:34;13.70;57.50
14798;DHT22;7490;63.708;20.368;2023-04-19T05:23:00;13.80;56.60
14798;DHT22;7490;63.708;20.368;2023-04-19T05:25:28;13.90;56.20
14798;DHT22;7490;63.708;20.368;2023-04-19T05:27:54;14.00;55.90
14798;DHT22;7490;63.708;20.368;2023-04-19T05:30:20;14.20;55.60
14798;DHT22;7490;63.708;20.368;2023-04-19T05:32:46;14.40;55.00
14798;DHT22;7490;63.708;20.368;2023-04-19T05:35:11;14.60;54.40
14798;DHT22;7490;63.708;20.368;2023-04-19T05:37:38;14.60;53.90
14798;DHT22;7490;63.708;20.368;2023-04-19T05:40:04;14.60;53.60
14798;DHT22;7490;63.708;20.368;2023-04-19T05:42:33;14.60;53.50
14798;DHT22;7490;63.708;20.368;2023-04-19T05:44:59;14.50;53.50
14798;DHT22;7490;63.708;20.368;2023-04-19T05:47:25;14.60;53.60
14798;DHT22;7490;63.708;20.368;2023-04-19T05:49:50;14.80;53.60
14798;DHT22;7490;63.708;20.368;2023-04-19T05:52:16;15.10;53.30
14798;DHT22;7490;63.708;20.368;2023-04-19T05:54:41;15.40;52.90
14798;DHT22;7490;63.708;20.368;2023-04-19T05:57:09;15.70;52.30
14798;DHT22;7490;63.708;20.368;2023-04-19T05:59:34;15.80;52.00
14798;DHT22;7490;63.708;20.368;2023-04-19T06:02:00;15.90;51.60
14798;DHT22;7490;63.708;20.368;2023-04-19T06:04:26;16.10;51.30
14798;DHT22;7490;63.708;20.368;2023-04-19T06:06:52;16.30;50.90
14798;DHT22;7490;63.708;20.368;2023-04-19T06:09:18;16.50;50.40
14798;DHT22;7490;63.708;20.368;2023-04-19T06:11:44;16.80;50.00
14798;DHT22;7490;63.708;20.368;2023-04-19T06:14:10;16.90;49.40
14798;DHT22;7490;63.708;20.368;2023-04-19T06:16:38;17.10;48.90
14798;DHT22;7490;63.708;20.368;2023-04-19T06:19:04;17.30;48.50
14798;DHT22;7490;63.708;20.368;2023-04-19T06:21:30;17.50;48.10
14798;DHT22;7490;63.708;20.368;2023-04-19T06:23:56;17.80;47.80
14798;DHT22;7490;63.708;20.368;2023-04-19T06:26:21;18.10;47.40
14798;DHT22;7490;63.708;20.368;2023-04-19T06:28:47;18.60;46.80
14798;DHT22;7490;63.708;20.368;2023-04-19T06:31:13;19.00;46.60
14798;DHT22;7490;63.708;20.368;2023-04-19T06:33:39;19.10;45.20
14798;DHT22;7490;63.708;20.368;2023-04-19T06:36:05;19.20;44.90
14798;DHT22;7490;63.708;20.368;2023-04-19T06:38:30;19.40;44.50
14798;DHT22;7490;63.708;20.368;2023-04-19T06:40:56;19.50;44.00
14798;DHT22;7490;63.708;20.368;2023-04-19T06:43:22;19.60;43.60
14798;DHT22;7490;63.708;20.368;2023-04-19T06:45:48;20.00;43.50
14798;DHT22;7490;63.708;20.368;2023-04-19T06:48:14;20.50;42.90
14798;DHT22;7490;63.708;20.368;2023-04-19T06:50:40;21.00;42.10
14798;DHT22;7490;63.708;20.368;2023-04-19T06:53:05;21.40;41.40
14798;DHT22;7490;63.708;20.368;2023-04-19T06:55:31;21.80;40.70
14798;DHT22;7490;63.708;20.368;2023-04-19T06:57:56;22.00;40.30
14798;DHT22;7490;63.708;20.368;2023-04-19T07:00:22;22.30;39.90
14798;DHT22;7490;63.708;20.368;2023-04-19T07:02:49;22.70;39.30
14798;DHT22;7490;63.708;20.368;2023-04-19T07:05:15;23.20;38.40
14798;DHT22;7490;63.708;20.368;2023-04-19T07:07:40;23.60;37.80
14798;DHT22;7490;63.708;20.368;2023-04-19T07:10:07;23.90;37.20
14798;DHT22;7490;63.708;20.368;2023-04-19T07:12:33;24.10;36.70
14798;DHT22;7490;63.708;20.368;2023-04-19T07:14:59;24.10;36.30
14798;DHT22;7490;63.708;20.368;2023-04-19T07:17:24;23.90;36.20
14798;DHT22;7490;63.708;20.368;2023-04-19T07:19:50;23.60;36.20
14798;DHT22;7490;63.708;20.368;2023-04-19T07:22:16;23.40;36.60
14798;DHT22;7490;63.708;20.368;2023-04-19T07:24:42;23.30;36.80
14798;DHT22;7490;63.708;20.368;2023-04-19T07:27:08;23.30;36.50
14798;DHT22;7490;63.708;20.368;2023-04-19T07:29:34;23.30;36.30
14798;DHT22;7490;63.708;20.368;2023-04-19T07:32:01;23.40;36.20
14798;DHT22;7490;63.708;20.368;2023-04-19T07:34:26;23.40;36.30
14798;DHT22;7490;63.708;20.368;2023-04-19T07:36:52;23.50;36.20
14798;DHT22;7490;63.708;20.368;2023-04-19T07:39:18;23.30;36.10
14798;DHT22;7490;63.708;20.368;2023-04-19T07:41:44;23.20;36.20
14798;DHT22;7490;63.708;20.368;2023-04-19T07:44:09;23.20;37.00
14798;DHT22;7490;63.708;20.368;2023-04-19T07:46:36;23.30;36.50
14798;DHT22;7490;63.708;20.368;2023-04-19T07:49:02;23.60;36.20
14798;DHT22;7490;63.708;20.368;2023-04-19T07:51:27;23.80;35.60
14798;DHT22;7490;63.708;20.368;2023-04-19T07:53:53;23.70;35.20
14798;DHT22;7490;63.708;20.368;2023-04-19T07:56:20;23.40;35.20
14798;DHT22;7490;63.708;20.368;2023-04-19T07:58:46;23.10;35.50
14798;DHT22;7490;63.708;20.368;2023-04-19T08:01:12;22.80;36.00
14798;DHT22;7490;63.708;20.368;2023-04-19T08:03:38;23.00;36.40
14798;DHT22;7490;63.708;20.368;2023-04-19T08:06:04;23.40;36.10
14798;DHT22;7490;63.708;20.368;2023-04-19T08:08:31;23.70;35.60
14798;DHT22;7490;63.708;20.368;2023-04-19T08:10:57;24.00;35.20
14798;DHT22;7490;63.708;20.368;2023-04-19T08:13:22;24.20;34.80
14798;DHT22;7490;63.708;20.368;2023-04-19T08:15:48;24.50;34.50
14798;DHT22;7490;63.708;20.368;2023-04-19T08:18:14;24.90;34.10
14798;DHT22;7490;63.708;20.368;2023-04-19T08:20:39;25.20;33.50
14798;DHT22;7490;63.708;20.368;2023-04-19T08:23:08;25.30;33.10
14798;DHT22;7490;63.708;20.368;2023-04-19T08:25:35;25.40;32.90
14798;DHT22;7490;63.708;20.368;2023-04-19T08:28:01;25.50;32.70
14798;DHT22;7490;63.708;20.368;2023-04-19T08:30:27;25.70;32.40
14798;DHT22;7490;63.708;20.368;2023-04-19T08:32:52;25.70;31.80
14798;DHT22;7490;63.708;20.368;2023-04-19T08:35:19;25.50;31.40
14798;DHT22;7490;63.708;20.368;2023-04-19T08:37:45;25.20;31.50
14798;DHT22;7490;63.708;20.368;2023-04-19T08:40:12;24.90;31.60
14798;DHT22;7490;63.708;20.368;2023-04-19T08:42:39;24.70;32.00
14798;DHT22;7490;63.708;20.368;2023-04-19T08:45:06;24.60;32.30
14798;DHT22;7490;63.708;20.368;2023-04-19T08:47:33;24.70;32.40
14798;DHT22;7490;63.708;20.368;2023-04-19T08:50:00;25.00;32.20
14798;DHT22;7490;63.708;20.368;2023-04-19T08:52:26;25.30;31.90
14798;DHT22;7490;63.708;20.368;2023-04-19T08:54:54;25.40;31.70
14798;DHT22;7490;63.708;20.368;2023-04-19T08:57:20;25.40;31.50
14798;DHT22;7490;63.708;20.368;2023-04-19T08:59:46;25.30;31.90
14798;DHT22;7490;63.708;20.368;2023-04-19T09:02:15;25.10;31.70
14798;DHT22;7490;63.708;20.368;2023-04-19T09:04:41;24.90;31.90
14798;DHT22;7490;63.708;20.368;2023-04-19T09:07:07;24.70;32.00
14798;DHT22;7490;63.708;20.368;2023-04-19T09:09:33;24.60;32.00
14798;DHT22;7490;63.708;20.368;2023-04-19T09:12:00;24.70;32.30
14798;DHT22;7490;63.708;20.368;2023-04-19T09:14:27;24.80;31.90
14798;DHT22;7490;63.708;20.368;2023-04-19T09:17:12;24.90;31.70
14798;DHT22;7490;63.708;20.368;2023-04-19T09:19:45;24.70;31.60
14798;DHT22;7490;63.708;20.368;2023-04-19T09:22:12;24.60;31.80
14798;DHT22;7490;63.708;20.368;2023-04-19T09:24:39;24.50;31.90
14798;DHT22;7490;63.708;20.368;2023-04-19T09:27:04;24.30;32.20
14798;DHT22;7490;63.708;20.368;2023-04-19T09:29:30;24.20;32.60
14798;DHT22;7490;63.708;20.368;2023-04-19T09:31:58;24.40;32.80
14798;DHT22;7490;63.708;20.368;2023-04-19T09:34:24;24.60;32.20
14798;DHT22;7490;63.708;20.368;2023-04-19T09:36:49;24.60;32.00
14798;DHT22;7490;63.708;20.368;2023-04-19T09:39:36;24.60;31.80
14798;DHT22;7490;63.708;20.368;2023-04-19T09:42:02;24.50;31.80
14798;DHT22;7490;63.708;20.368;2023-04-19T09:44:28;24.50;32.00
14798;DHT22;7490;63.708;20.368;2023-04-19T09:46:53;24.30;32.10
14798;DHT22;7490;63.708;20.368;2023-04-19T09:49:23;24.20;32.50
14798;DHT22;7490;63.708;20.368;2023-04-19T09:51:54;24.20;32.30
14798;DHT22;7490;63.708;20.368;2023-04-19T09:54:22;24.20;32.50
14798;DHT22;7490;63.708;20.368;2023-04-19T09:56:48;24.30;32.60
14798;DHT22;7490;63.708;20.368;2023-04-19T09:59:15;24.30;32.30
14798;DHT22;7490;63.708;20.368;2023-04-19T10:01:45;24.00;32.00
14798;DHT22;7490;63.708;20.368;2023-04-19T10:04:13;23.60;32.90
14798;DHT22;7490;63.708;20.368;2023-04-19T10:06:52;23.40;33.00
14798;DHT22;7490;63.708;20.368;2023-04-19T10:09:20;23.40;33.10
14798;DHT22;7490;63.708;20.368;2023-04-19T10:11:51;23.50;33.00
14798;DHT22;7490;63.708;20.368;2023-04-19T10:14:24;23.20;32.70
14798;DHT22;7490;63.708;20.368;2023-04-19T10:16:50;22.80;33.00
14798;DHT22;7490;63.708;20.368;2023-04-19T10:19:18;22.40;33.50
14798;DHT22;7490;63.708;20.368;2023-04-19T10:21:46;22.20;33.90
14798;DHT22;7490;63.708;20.368;2023-04-19T10:24:13;22.10;33.90
14798;DHT22;7490;63.708;20.368;2023-04-19T10:27:08;22.00;34.10
14798;DHT22;7490;63.708;20.368;2023-04-19T10:32:16;21.90;34.30
14798;DHT22;7490;63.708;20.368;2023-04-19T10:34:42;21.90;34.40
14798;DHT22;7490;63.708;20.368;2023-04-19T10:37:12;21.90;34.60
14798;DHT22;7490;63.708;20.368;2023-04-19T10:39:42;22.10;34.60
14798;DHT22;7490;63.708;20.368;2023-04-19T10:42:08;22.20;34.30
14798;DHT22;7490;63.708;20.368;2023-04-19T10:44:34;22.20;34.20
14798;DHT22;7490;63.708;20.368;2023-04-19T10:47:00;22.10;34.20
14798;DHT22;7490;63.708;20.368;2023-04-19T10:49:28;22.00;34.50
14798;DHT22;7490;63.708;20.368;2023-04-19T10:51:54;21.80;34.20
14798;DHT22;7490;63.708;20.368;2023-04-19T10:54:30;21.40;34.60
14798;DHT22;7490;63.708;20.368;2023-04-19T10:57:03;21.00;35.00
14798;DHT22;7490;63.708;20.368;2023-04-19T10:59:36;20.60;35.80
14798;DHT22;7490;63.708;20.368;2023-04-19T11:02:05;20.40;36.20
14798;DHT22;7490;63.708;20.368;2023-04-19T11:07:16;20.20;36.70
14798;DHT22;7490;63.708;20.368;2023-04-19T11:09:48;20.00;36.70
14798;DHT22;7490;63.708;20.368;2023-04-19T11:12:17;20.00;37.00
14798;DHT22;7490;63.708;20.368;2023-04-19T11:14:45;20.00;36.90
14798;DHT22;7490;63.708;20.368;2023-04-19T11:17:16;19.80;36.50
14798;DHT22;7490;63.708;20.368;2023-04-19T11:20:08;19.40;36.80
14798;DHT22;7490;63.708;20.368;2023-04-19T11:22:39;18.70;37.70
14798;DHT22;7490;63.708;20.368;2023-04-19T11:27:36;17.60;39.30
14798;DHT22;7490;63.708;20.368;2023-04-19T11:32:44;16.80;40.60
14798;DHT22;7490;63.708;20.368;2023-04-19T11:35:10;16.50;41.20
14798;DHT22;7490;63.708;20.368;2023-04-19T11:37:37;16.20;41.60
14798;DHT22;7490;63.708;20.368;2023-04-19T11:40:04;15.90;42.00
14798;DHT22;7490;63.708;20.368;2023-04-19T11:42:31;15.70;42.60
14798;DHT22;7490;63.708;20.368;2023-04-19T11:44:57;15.50;43.00
14798;DHT22;7490;63.708;20.368;2023-04-19T11:47:25;15.20;43.40
14798;DHT22;7490;63.708;20.368;2023-04-19T11:49:53;15.10;43.70
14798;DHT22;7490;63.708;20.368;2023-04-19T11:52:23;15.00;44.10
14798;DHT22;7490;63.708;20.368;2023-04-19T11:54:53;14.80;44.40
14798;DHT22;7490;63.708;20.368;2023-04-19T11:57:40;14.70;44.60
14798;DHT22;7490;63.708;20.368;2023-04-19T12:00:07;14.60;45.00
14798;DHT22;7490;63.708;20.368;2023-04-19T12:02:40;14.40;44.90
14798;DHT22;7490;63.708;20.368;2023-04-19T12:05:11;14.30;45.20
14798;DHT22;7490;63.708;20.368;2023-04-19T12:07:38;14.10;45.70
14798;DHT22;7490;63.708;20.368;2023-04-19T12:10:21;14.10;46.10
14798;DHT22;7490;63.708;20.368;2023-04-19T12:12:47;14.10;46.30
14798;DHT22;7490;63.708;20.368;2023-04-19T12:15:12;14.10;46.40
14798;DHT22;7490;63.708;20.368;2023-04-19T12:17:58;14.20;46.50
14798;DHT22;7490;63.708;20.368;2023-04-19T12:20:32;14.20;46.60
14798;DHT22;7490;63.708;20.368;2023-04-19T12:22:58;14.30;46.70
14798;DHT22;7490;63.708;20.368;2023-04-19T12:25:31;14.30;46.60
14798;DHT22;7490;63.708;20.368;2023-04-19T12:28:04;14.40;46.60
14798;DHT22;7490;63.708;20.368;2023-04-19T12:30:30;14.50;46.40
14798;DHT22;7490;63.708;20.368;2023-04-19T12:32:56;14.50;46.50
14798;DHT22;7490;63.708;20.368;2023-04-19T12:35:24;14.60;46.40
14798;DHT22;7490;63.708;20.368;2023-04-19T12:37:52;14.60;46.10
14798;DHT22;7490;63.708;20.368;2023-04-19T12:40:18;14.50;46.10
14798;DHT22;7490;63.708;20.368;2023-04-19T12:42:43;14.40;46.30
14798;DHT22;7490;63.708;20.368;2023-04-19T12:45:10;14.40;46.80
14798;DHT22;7490;63.708;20.368;2023-04-19T12:47:36;14.50;46.90
14798;DHT22;7490;63.708;20.368;2023-04-19T12:50:03;14.60;47.00
14798;DHT22;7490;63.708;20.368;2023-04-19T12:52:29;14.80;47.00
14798;DHT22;7490;63.708;20.368;2023-04-19T12:54:54;15.10;47.00
14798;DHT22;7490;63.708;20.368;2023-04-19T12:57:20;15.40;46.60
14798;DHT22;7490;63.708;20.368;2023-04-19T12:59:46;15.60;46.10
14798;DHT22;7490;63.708;20.368;2023-04-19T13:02:11;15.70;45.70
14798;DHT22;7490;63.708;20.368;2023-04-19T13:04:37;15.70;45.40
14798;DHT22;7490;63.708;20.368;2023-04-19T13:07:03;15.70;45.20
14798;DHT22;7490;63.708;20.368;2023-04-19T13:09:28;15.70;45.10
14798;DHT22;7490;63.708;20.368;2023-04-19T13:11:54;15.70;45.00
14798;DHT22;7490;63.708;20.368;2023-04-19T13:14:20;15.60;44.80
14798;DHT22;7490;63.708;20.368;2023-04-19T13:16:46;15.60;45.50
14798;DHT22;7490;63.708;20.368;2023-04-19T13:19:12;15.40;44.80
14798;DHT22;7490;63.708;20.368;2023-04-19T13:21:37;15.30;45.00
14798;DHT22;7490;63.708;20.368;2023-04-19T13:24:03;15.10;45.10
14798;DHT22;7490;63.708;20.368;2023-04-19T13:26:29;14.90;45.40
14798;DHT22;7490;63.708;20.368;2023-04-19T13:28:55;14.80;45.80
14798;DHT22;7490;63.708;20.368;2023-04-19T13:31:21;14.50;46.00
14798;DHT22;7490;63.708;20.368;2023-04-19T13:33:46;14.30;46.20
14798;DHT22;7490;63.708;20.368;2023-04-19T13:36:12;14.10;46.50
14798;DHT22;7490;63.708;20.368;2023-04-19T13:38:38;13.80;46.80
14798;DHT22;7490;63.708;20.368;2023-04-19T13:41:03;13.60;47.40
14798;DHT22;7490;63.708;20.368;2023-04-19T13:43:29;13.40;47.90
14798;DHT22;7490;63.708;20.368;2023-04-19T13:45:55;13.30;48.20
14798;DHT22;7490;63.708;20.368;2023-04-19T13:48:20;13.20;48.60
14798;DHT22;7490;63.708;20.368;2023-04-19T13:50:46;13.00;48.80
14798;DHT22;7490;63.708;20.368;2023-04-19T13:53:11;13.00;49.10
14798;DHT22;7490;63.708;20.368;2023-04-19T13:55:37;12.90;49.30
14798;DHT22;7490;63.708;20.368;2023-04-19T13:58:03;12.80;49.60
14798;DHT22;7490;63.708;20.368;2023-04-19T14:00:28;12.80;49.80
14798;DHT22;7490;63.708;20.368;2023-04-19T14:02:54;12.70;49.90
14798;DHT22;7490;63.708;20.368;2023-04-19T14:05:21;12.70;50.00
14798;DHT22;7490;63.708;20.368;2023-04-19T14:07:46;12.70;50.20
14798;DHT22;7490;63.708;20.368;2023-04-19T14:10:12;12.70;50.40
14798;DHT22;7490;63.708;20.368;2023-04-19T14:12:38;12.80;50.40
14798;DHT22;7490;63.708;20.368;2023-04-19T14:15:03;12.80;50.30
14798;DHT22;7490;63.708;20.368;2023-04-19T14:17:29;12.80;50.30
14798;DHT22;7490;63.708;20.368;2023-04-19T14:19:55;12.80;50.40
14798;DHT22;7490;63.708;20.368;2023-04-19T14:22:21;12.90;50.60
14798;DHT22;7490;63.708;20.368;2023-04-19T14:24:46;12.90;50.60
14798;DHT22;7490;63.708;20.368;2023-04-19T14:27:12;13.00;50.70
14798;DHT22;7490;63.708;20.368;2023-04-19T14:29:38;13.10;50.60
14798;DHT22;7490;63.708;20.368;2023-04-19T14:32:04;13.10;51.20
14798;DHT22;7490;63.708;20.368;2023-04-19T14:34:30;13.20;50.60
14798;DHT22;7490;63.708;20.368;2023-04-19T14:36:57;13.30;50.60
14798;DHT22;7490;63.708;20.368;2023-04-19T14:39:22;13.40;50.60
14798;DHT22;7490;63.708;20.368;2023-04-19T14:41:48;13.50;50.50
14798;DHT22;7490;63.708;20.368;2023-04-19T14:44:14;13.60;50.40
14798;DHT22;7490;63.708;20.368;2023-04-19T14:46:39;13.60;50.20
14798;DHT22;7490;63.708;20.368;2023-04-19T14:49:05;13.60;50.00
14798;DHT22;7490;63.708;20.368;2023-04-19T14:51:31;13.50;50.00
14798;DHT22;7490;63.708;20.368;2023-04-19T14:54:00;13.50;50.00
14798;DHT22;7490;63.708;20.368;2023-04-19T14:56:26;13.50;50.20
14798;DHT22;7490;63.708;20.368;2023-04-19T14:58:51;13.50;50.20
14798;DHT22;7490;63.708;20.368;2023-04-19T15:01:18;13.50;50.20
14798;DHT22;7490;63.708;20.368;2023-04-19T15:03:44;13.40;50.30
14798;DHT22;7490;63.708;20.368;2023-04-19T15:06:09;13.40;50.30
14798;DHT22;7490;63.708;20.368;2023-04-19T15:08:35;13.30;50.40
14798;DHT22;7490;63.708;20.368;2023-04-19T15:11:01;13.20;50.40
14798;DHT22;7490;63.708;20.368;2023-04-19T15:13:26;13.20;50.60
14798;DHT22;7490;63.708;20.368;2023-04-19T15:15:54;13.10;50.70
14798;DHT22;7490;63.708;20.368;2023-04-19T15:18:20;13.00;50.80
14798;DHT22;7490;63.708;20.368;2023-04-19T15:20:45;13.00;50.90
14798;DHT22;7490;63.708;20.368;2023-04-19T15:23:11;12.90;51.00
14798;DHT22;7490;63.708;20.368;2023-04-19T15:25:37;12.80;51.10
14798;DHT22;7490;63.708;20.368;2023-04-19T15:28:02;12.80;51.20
14798;DHT22;7490;63.708;20.368;2023-04-19T15:30:28;12.70;51.40
14798;DHT22;7490;63.708;20.368;2023-04-19T15:32:54;12.70;51.60
14798;DHT22;7490;63.708;20.368;2023-04-19T15:35:20;12.60;51.80
14798;DHT22;7490;63.708;20.368;2023-04-19T15:37:46;12.60;52.00
14798;DHT22;7490;63.708;20.368;2023-04-19T15:40:12;12.60;52.10
14798;DHT22;7490;63.708;20.368;2023-04-19T15:42:39;12.50;52.20